sensor_id;sensor_type;location;lat;lon;timestamp;P1;durP1;ratioP1;P2;durP2;ratioP2
11735;SDS011;5924;51.398;7.088;2023-07-30T00:01:38;3.33;;;2.80;;
11735;SDS011;5924;51.398;7.088;2023-07-30T00:04:03;3.53;;;2.90;;
11735;SDS011;5924;51.398;7.088;2023-07-30T00:06:29;3.13;;;3.03;;
11735;SDS011;5924;51.398;7.088;2023-07-30T00:08:55;3.27;;;3.17;;
11735;SDS011;5924;51.398;7.088;2023-07-30T00:11:20;3.37;;;3.07;;
11735;SDS011;5924;51.398;7.088;2023-07-30T00:13:46;3.27;;;3.07;;
11735;SDS011;5924;51.398;7.088;2023-07-30T00:16:11;2.50;;;2.40;;
11735;SDS011;5924;51.398;7.088;2023-07-30T00:18:37;4.90;;;2.90;;
11735;SDS011;5924;51.398;7.088;2023-07-30T00:21:03;2.73;;;2.63;;
11735;SDS011;5924;51.398;7.088;2023-07-30T00:23:28;2.80;;;2.70;;
11735;SDS011;5924;51.398;7.088;2023-07-30T00:25:54;3.00;;;2.90;;
11735;SDS011;5924;51.398;7.088;2023-07-30T00:28:19;2.80;;;2.60;;
11735;SDS011;5924;51.398;7.088;2023-07-30T00:30:45;2.50;;;2.40;;
11735;SDS011;5924;51.398;7.088;2023-07-30T00:33:11;3.13;;;2.93;;
11735;SDS011;5924;51.398;7.088;2023-07-30T00:35:37;3.00;;;2.90;;
11735;SDS011;5924;51.398;7.088;2023-07-30T00:38:02;2.77;;;2.67;;
11735;SDS011;5924;51.398;7.088;2023-07-30T00:40:28;2.80;;;2.60;;
11735;SDS011;5924;51.398;7.088;2023-07-30T00:42:54;4.90;;;3.23;;
11735;SDS011;5924;51.398;7.088;2023-07-30T00:45:19;3.17;;;3.00;;
11735;SDS011;5924;51.398;7.088;2023-07-30T00:47:46;3.67;;;3.47;;
11735;SDS011;5924;51.398;7.088;2023-07-30T00:50:12;3.27;;;2.97;;
11735;SDS011;5924;51.398;7.088;2023-07-30T00:52:40;3.63;;;3.33;;
11735;SDS011;5924;51.398;7.088;2023-07-30T00:55:06;3.20;;;3.00;;
11735;SDS011;5924;51.398;7.088;2023-07-30T00:57:32;2.87;;;2.77;;
11735;SDS011;5924;51.398;7.088;2023-07-30T01:00:00;3.43;;;3.23;;
11735;SDS011;5924;51.398;7.088;2023-07-30T01:02:29;3.60;;;3.27;;
11735;SDS011;5924;51.398;7.088;2023-07-30T01:04:56;6.03;;;3.30;;
11735;SDS011;5924;51.398;7.088;2023-07-30T01:07:22;3.20;;;3.10;;
11735;SDS011;5924;51.398;7.088;2023-07-30T01:09:48;3.60;;;3.30;;
11735;SDS011;5924;51.398;7.088;2023-07-30T01:12:14;3.03;;;2.93;;
11735;SDS011;5924;51.398;7.088;2023-07-30T01:14:39;3.40;;;3.10;;
11735;SDS011;5924;51.398;7.088;2023-07-30T01:17:06;3.70;;;3.40;;
11735;SDS011;5924;51.398;7.088;2023-07-30T01:19:32;3.60;;;3.23;;
11735;SDS011;5924;51.398;7.088;2023-07-30T01:21:57;3.23;;;3.10;;
11735;SDS011;5924;51.398;7.088;2023-07-30T01:24:23;3.00;;;2.90;;
11735;SDS011;5924;51.398;7.088;2023-07-30T01:26:51;3.00;;;2.80;;
11735;SDS011;5924;51.398;7.088;2023-07-30T01:29:36;4.70;;;3.10;;
11735;SDS011;5924;51.398;7.088;2023-07-30T01:32:08;3.10;;;3.00;;
11735;SDS011;5924;51.398;7.088;2023-07-30T01:34:37;5.67;;;3.53;;
11735;SDS011;5924;51.398;7.088;2023-07-30T01:37:08;3.33;;;3.23;;
11735;SDS011;5924;51.398;7.088;2023-07-30T01:39:37;5.90;;;3.53;;
11735;SDS011;5924;51.398;7.088;2023-07-30T01:42:05;3.93;;;3.73;;
11735;SDS011;5924;51.398;7.088;2023-07-30T01:44:31;3.30;;;3.10;;
11735;SDS011;5924;51.398;7.088;2023-07-30T01:46:56;3.40;;;3.10;;
11735;SDS011;5924;51.398;7.088;2023-07-30T01:49:22;3.87;;;3.67;;
11735;SDS011;5924;51.398;7.088;2023-07-30T01:51:48;3.03;;;2.87;;
11735;SDS011;5924;51.398;7.088;2023-07-30T01:54:14;3.80;;;3.50;;
11735;SDS011;5924;51.398;7.088;2023-07-30T01:56:40;3.40;;;3.30;;
11735;SDS011;5924;51.398;7.088;2023-07-30T01:59:05;4.30;;;3.50;;
11735;SDS011;5924;51.398;7.088;2023-07-30T02:01:31;2.93;;;2.80;;
11735;SDS011;5924;51.398;7.088;2023-07-30T02:03:56;2.90;;;2.90;;
11735;SDS011;5924;51.398;7.088;2023-07-30T02:06:22;2.80;;;2.70;;
11735;SDS011;5924;51.398;7.088;2023-07-30T02:08:48;2.80;;;2.70;;
11735;SDS011;5924;51.398;7.088;2023-07-30T02:11:13;3.00;;;2.80;;
11735;SDS011;5924;51.398;7.088;2023-07-30T02:13:39;3.17;;;3.07;;
11735;SDS011;5924;51.398;7.088;2023-07-30T02:16:05;3.60;;;3.40;;
11735;SDS011;5924;51.398;7.088;2023-07-30T02:18:30;4.50;;;3.30;;
11735;SDS011;5924;51.398;7.088;2023-07-30T02:20:56;2.93;;;2.73;;
11735;SDS011;5924;51.398;7.088;2023-07-30T02:23:21;3.10;;;2.90;;
11735;SDS011;5924;51.398;7.088;2023-07-30T02:25:47;3.50;;;3.30;;
11735;SDS011;5924;51.398;7.088;2023-07-30T02:28:13;3.60;;;3.40;;
11735;SDS011;5924;51.398;7.088;2023-07-30T02:30:38;2.93;;;2.83;;
11735;SDS011;5924;51.398;7.088;2023-07-30T02:33:04;4.40;;;3.43;;
11735;SDS011;5924;51.398;7.088;2023-07-30T02:35:30;2.93;;;2.83;;
11735;SDS011;5924;51.398;7.088;2023-07-30T02:37:55;2.90;;;2.70;;
11735;SDS011;5924;51.398;7.088;2023-07-30T02:40:21;3.03;;;2.93;;
11735;SDS011;5924;51.398;7.088;2023-07-30T02:42:47;3.03;;;2.83;;
11735;SDS011;5924;51.398;7.088;2023-07-30T02:45:12;3.30;;;3.00;;
11735;SDS011;5924;51.398;7.088;2023-07-30T02:47:38;4.97;;;3.43;;
11735;SDS011;5924;51.398;7.088;2023-07-30T02:50:04;7.63;;;3.20;;
11735;SDS011;5924;51.398;7.088;2023-07-30T02:52:31;3.63;;;3.30;;
11735;SDS011;5924;51.398;7.088;2023-07-30T02:54:56;4.00;;;3.67;;
11735;SDS011;5924;51.398;7.088;2023-07-30T02:57:22;7.70;;;3.10;;
11735;SDS011;5924;51.398;7.088;2023-07-30T02:59:48;6.93;;;3.20;;
11735;SDS011;5924;51.398;7.088;2023-07-30T03:02:13;5.00;;;2.93;;
11735;SDS011;5924;51.398;7.088;2023-07-30T03:04:39;4.77;;;3.67;;
11735;SDS011;5924;51.398;7.088;2023-07-30T03:07:05;3.50;;;3.23;;
11735;SDS011;5924;51.398;7.088;2023-07-30T03:09:31;5.23;;;3.70;;
11735;SDS011;5924;51.398;7.088;2023-07-30T03:11:57;5.20;;;3.67;;
11735;SDS011;5924;51.398;7.088;2023-07-30T03:14:23;3.73;;;3.53;;
11735;SDS011;5924;51.398;7.088;2023-07-30T03:16:49;3.90;;;3.33;;
11735;SDS011;5924;51.398;7.088;2023-07-30T03:19:15;7.17;;;3.10;;
11735;SDS011;5924;51.398;7.088;2023-07-30T03:21:40;7.90;;;3.23;;
11735;SDS011;5924;51.398;7.088;2023-07-30T03:24:06;3.30;;;3.00;;
11735;SDS011;5924;51.398;7.088;2023-07-30T03:26:32;3.27;;;2.97;;
11735;SDS011;5924;51.398;7.088;2023-07-30T03:28:58;3.13;;;3.03;;
11735;SDS011;5924;51.398;7.088;2023-07-30T03:31:24;3.83;;;3.43;;
11735;SDS011;5924;51.398;7.088;2023-07-30T03:33:49;4.10;;;3.80;;
11735;SDS011;5924;51.398;7.088;2023-07-30T03:36:15;7.53;;;3.53;;
11735;SDS011;5924;51.398;7.088;2023-07-30T03:38:41;6.40;;;3.10;;
11735;SDS011;5924;51.398;7.088;2023-07-30T03:41:07;10.43;;;3.50;;
11735;SDS011;5924;51.398;7.088;2023-07-30T03:43:34;6.03;;;3.70;;
11735;SDS011;5924;51.398;7.088;2023-07-30T03:46:00;4.00;;;3.63;;
11735;SDS011;5924;51.398;7.088;2023-07-30T03:48:26;5.80;;;3.23;;
11735;SDS011;5924;51.398;7.088;2023-07-30T03:50:52;3.97;;;3.63;;
11735;SDS011;5924;51.398;7.088;2023-07-30T03:53:18;3.17;;;2.97;;
11735;SDS011;5924;51.398;7.088;2023-07-30T03:55:44;4.40;;;3.93;;
11735;SDS011;5924;51.398;7.088;2023-07-30T03:58:09;7.10;;;3.53;;
11735;SDS011;5924;51.398;7.088;2023-07-30T04:00:35;3.43;;;3.23;;
11735;SDS011;5924;51.398;7.088;2023-07-30T04:03:01;4.37;;;3.57;;
11735;SDS011;5924;51.398;7.088;2023-07-30T04:05:26;3.37;;;3.10;;
11735;SDS011;5924;51.398;7.088;2023-07-30T04:07:52;3.63;;;3.33;;
11735;SDS011;5924;51.398;7.088;2023-07-30T04:10:17;3.23;;;3.03;;
11735;SDS011;5924;51.398;7.088;2023-07-30T04:12:44;4.77;;;3.27;;
11735;SDS011;5924;51.398;7.088;2023-07-30T04:15:10;8.47;;;3.37;;
11735;SDS011;5924;51.398;7.088;2023-07-30T04:17:38;4.57;;;4.20;;
11735;SDS011;5924;51.398;7.088;2023-07-30T04:20:04;4.03;;;3.27;;
11735;SDS011;5924;51.398;7.088;2023-07-30T04:22:31;4.43;;;3.77;;
11735;SDS011;5924;51.398;7.088;2023-07-30T04:24:56;3.73;;;3.43;;
11735;SDS011;5924;51.398;7.088;2023-07-30T04:27:22;5.47;;;3.60;;
11735;SDS011;5924;51.398;7.088;2023-07-30T04:29:48;3.40;;;3.30;;
11735;SDS011;5924;51.398;7.088;2023-07-30T04:32:13;7.20;;;3.53;;
11735;SDS011;5924;51.398;7.088;2023-07-30T04:34:39;4.00;;;3.70;;
11735;SDS011;5924;51.398;7.088;2023-07-30T04:37:05;4.33;;;3.97;;
11735;SDS011;5924;51.398;7.088;2023-07-30T04:39:34;5.03;;;2.90;;
11735;SDS011;5924;51.398;7.088;2023-07-30T04:42:00;7.43;;;4.23;;
11735;SDS011;5924;51.398;7.088;2023-07-30T04:44:26;8.63;;;4.57;;
11735;SDS011;5924;51.398;7.088;2023-07-30T04:46:52;12.63;;;3.90;;
11735;SDS011;5924;51.398;7.088;2023-07-30T04:49:17;6.00;;;3.80;;
11735;SDS011;5924;51.398;7.088;2023-07-30T04:51:43;10.03;;;4.40;;
11735;SDS011;5924;51.398;7.088;2023-07-30T04:54:08;6.03;;;3.90;;
11735;SDS011;5924;51.398;7.088;2023-07-30T04:56:34;8.13;;;3.47;;
11735;SDS011;5924;51.398;7.088;2023-07-30T04:59:00;8.70;;;3.93;;
11735;SDS011;5924;51.398;7.088;2023-07-30T05:01:26;23.07;;;4.80;;
11735;SDS011;5924;51.398;7.088;2023-07-30T05:03:52;9.73;;;4.20;;
11735;SDS011;5924;51.398;7.088;2023-07-30T05:06:18;6.47;;;4.17;;
11735;SDS011;5924;51.398;7.088;2023-07-30T05:08:44;6.17;;;3.93;;
11735;SDS011;5924;51.398;7.088;2023-07-30T05:11:09;14.63;;;3.87;;
11735;SDS011;5924;51.398;7.088;2023-07-30T05:13:35;6.77;;;3.97;;
11735;SDS011;5924;51.398;7.088;2023-07-30T05:16:01;6.20;;;4.20;;
11735;SDS011;5924;51.398;7.088;2023-07-30T05:18:27;8.00;;;4.30;;
11735;SDS011;5924;51.398;7.088;2023-07-30T05:20:52;11.50;;;5.03;;
11735;SDS011;5924;51.398;7.088;2023-07-30T05:23:19;13.40;;;4.97;;
11735;SDS011;5924;51.398;7.088;2023-07-30T05:25:45;9.03;;;3.67;;
11735;SDS011;5924;51.398;7.088;2023-07-30T05:28:11;6.37;;;3.97;;
11735;SDS011;5924;51.398;7.088;2023-07-30T05:30:36;8.03;;;3.77;;
11735;SDS011;5924;51.398;7.088;2023-07-30T05:33:02;4.03;;;3.57;;
11735;SDS011;5924;51.398;7.088;2023-07-30T05:35:28;7.53;;;3.40;;
11735;SDS011;5924;51.398;7.088;2023-07-30T05:37:53;8.43;;;3.50;;
11735;SDS011;5924;51.398;7.088;2023-07-30T05:40:19;6.47;;;3.60;;
11735;SDS011;5924;51.398;7.088;2023-07-30T05:42:45;9.37;;;3.60;;
11735;SDS011;5924;51.398;7.088;2023-07-30T05:45:11;5.07;;;3.60;;
11735;SDS011;5924;51.398;7.088;2023-07-30T05:47:37;10.07;;;3.73;;
11735;SDS011;5924;51.398;7.088;2023-07-30T05:50:03;5.83;;;4.27;;
11735;SDS011;5924;51.398;7.088;2023-07-30T05:52:29;11.17;;;3.37;;
11735;SDS011;5924;51.398;7.088;2023-07-30T05:54:55;12.80;;;3.10;;
11735;SDS011;5924;51.398;7.088;2023-07-30T05:57:20;3.40;;;3.20;;
11735;SDS011;5924;51.398;7.088;2023-07-30T05:59:46;5.90;;;3.27;;
11735;SDS011;5924;51.398;7.088;2023-07-30T06:02:12;8.90;;;2.70;;
11735;SDS011;5924;51.398;7.088;2023-07-30T06:04:37;3.30;;;3.10;;
11735;SDS011;5924;51.398;7.088;2023-07-30T06:07:03;2.87;;;2.67;;
11735;SDS011;5924;51.398;7.088;2023-07-30T06:09:29;6.63;;;2.77;;
11735;SDS011;5924;51.398;7.088;2023-07-30T06:11:56;3.17;;;2.50;;
11735;SDS011;5924;51.398;7.088;2023-07-30T06:14:22;2.90;;;2.70;;
11735;SDS011;5924;51.398;7.088;2023-07-30T06:16:48;6.97;;;3.00;;
11735;SDS011;5924;51.398;7.088;2023-07-30T06:19:14;6.73;;;3.33;;
11735;SDS011;5924;51.398;7.088;2023-07-30T06:21:40;5.03;;;3.00;;
11735;SDS011;5924;51.398;7.088;2023-07-30T06:24:05;2.87;;;2.27;;
11735;SDS011;5924;51.398;7.088;2023-07-30T06:26:31;7.20;;;2.40;;
11735;SDS011;5924;51.398;7.088;2023-07-30T06:28:57;2.40;;;2.13;;
11735;SDS011;5924;51.398;7.088;2023-07-30T06:31:23;11.23;;;2.67;;
11735;SDS011;5924;51.398;7.088;2023-07-30T06:33:49;2.50;;;2.20;;
11735;SDS011;5924;51.398;7.088;2023-07-30T06:36:15;2.60;;;2.40;;
11735;SDS011;5924;51.398;7.088;2023-07-30T06:38:40;7.70;;;2.23;;
11735;SDS011;5924;51.398;7.088;2023-07-30T06:41:06;4.37;;;2.20;;
11735;SDS011;5924;51.398;7.088;2023-07-30T06:43:32;5.77;;;2.13;;
11735;SDS011;5924;51.398;7.088;2023-07-30T06:45:57;11.33;;;2.27;;
11735;SDS011;5924;51.398;7.088;2023-07-30T06:48:23;3.90;;;2.00;;
11735;SDS011;5924;51.398;7.088;2023-07-30T06:50:48;4.13;;;2.20;;
11735;SDS011;5924;51.398;7.088;2023-07-30T06:53:14;4.63;;;2.13;;
11735;SDS011;5924;51.398;7.088;2023-07-30T06:55:40;5.00;;;2.30;;
11735;SDS011;5924;51.398;7.088;2023-07-30T06:58:05;3.43;;;1.73;;
11735;SDS011;5924;51.398;7.088;2023-07-30T07:00:31;5.10;;;2.30;;
11735;SDS011;5924;51.398;7.088;2023-07-30T07:02:57;3.23;;;1.97;;
11735;SDS011;5924;51.398;7.088;2023-07-30T07:05:22;5.40;;;2.20;;
11735;SDS011;5924;51.398;7.088;2023-07-30T07:07:48;3.53;;;2.47;;
11735;SDS011;5924;51.398;7.088;2023-07-30T07:10:13;3.03;;;2.20;;
11735;SDS011;5924;51.398;7.088;2023-07-30T07:12:40;3.20;;;2.13;;
11735;SDS011;5924;51.398;7.088;2023-07-30T07:15:06;4.20;;;2.03;;
11735;SDS011;5924;51.398;7.088;2023-07-30T07:17:32;3.17;;;1.90;;
11735;SDS011;5924;51.398;7.088;2023-07-30T07:19:58;3.60;;;2.17;;
11735;SDS011;5924;51.398;7.088;2023-07-30T07:22:23;4.60;;;2.43;;
11735;SDS011;5924;51.398;7.088;2023-07-30T07:24:50;5.17;;;2.20;;
11735;SDS011;5924;51.398;7.088;2023-07-30T07:27:20;2.77;;;2.53;;
11735;SDS011;5924;51.398;7.088;2023-07-30T07:29:45;4.20;;;2.90;;
11735;SDS011;5924;51.398;7.088;2023-07-30T07:32:11;6.80;;;2.23;;
11735;SDS011;5924;51.398;7.088;2023-07-30T07:34:37;5.60;;;1.97;;
11735;SDS011;5924;51.398;7.088;2023-07-30T07:37:02;4.00;;;2.00;;
11735;SDS011;5924;51.398;7.088;2023-07-30T07:39:28;3.00;;;2.27;;
11735;SDS011;5924;51.398;7.088;2023-07-30T07:41:54;4.83;;;2.17;;
11735;SDS011;5924;51.398;7.088;2023-07-30T07:44:20;5.40;;;3.10;;
11735;SDS011;5924;51.398;7.088;2023-07-30T07:46:47;2.40;;;2.20;;
11735;SDS011;5924;51.398;7.088;2023-07-30T07:49:13;2.40;;;2.20;;
11735;SDS011;5924;51.398;7.088;2023-07-30T07:51:38;8.10;;;2.43;;
11735;SDS011;5924;51.398;7.088;2023-07-30T07:54:04;2.90;;;2.70;;
11735;SDS011;5924;51.398;7.088;2023-07-30T07:56:30;5.67;;;2.33;;
11735;SDS011;5924;51.398;7.088;2023-07-30T07:58:56;2.93;;;2.17;;
11735;SDS011;5924;51.398;7.088;2023-07-30T08:01:22;5.23;;;2.33;;
11735;SDS011;5924;51.398;7.088;2023-07-30T08:03:48;7.03;;;2.17;;
11735;SDS011;5924;51.398;7.088;2023-07-30T08:06:14;4.73;;;2.47;;
11735;SDS011;5924;51.398;7.088;2023-07-30T08:08:39;5.87;;;2.27;;
11735;SDS011;5924;51.398;7.088;2023-07-30T08:11:06;5.83;;;2.27;;
11735;SDS011;5924;51.398;7.088;2023-07-30T08:13:32;9.07;;;3.23;;
11735;SDS011;5924;51.398;7.088;2023-07-30T08:15:58;5.07;;;2.07;;
11735;SDS011;5924;51.398;7.088;2023-07-30T08:18:24;2.60;;;2.40;;
11735;SDS011;5924;51.398;7.088;2023-07-30T08:20:50;2.87;;;2.30;;
11735;SDS011;5924;51.398;7.088;2023-07-30T08:23:16;5.80;;;2.90;;
11735;SDS011;5924;51.398;7.088;2023-07-30T08:25:42;6.23;;;3.30;;
11735;SDS011;5924;51.398;7.088;2023-07-30T08:28:07;3.33;;;2.50;;
11735;SDS011;5924;51.398;7.088;2023-07-30T08:30:33;3.73;;;2.43;;
11735;SDS011;5924;51.398;7.088;2023-07-30T08:32:58;6.67;;;2.63;;
11735;SDS011;5924;51.398;7.088;2023-07-30T08:35:24;4.60;;;2.37;;
11735;SDS011;5924;51.398;7.088;2023-07-30T08:37:51;6.83;;;3.23;;
11735;SDS011;5924;51.398;7.088;2023-07-30T08:40:17;4.17;;;2.87;;
11735;SDS011;5924;51.398;7.088;2023-07-30T08:42:43;6.10;;;2.67;;
11735;SDS011;5924;51.398;7.088;2023-07-30T08:45:09;4.60;;;3.13;;
11735;SDS011;5924;51.398;7.088;2023-07-30T08:47:35;9.63;;;3.03;;
11735;SDS011;5924;51.398;7.088;2023-07-30T08:50:01;4.70;;;2.43;;
11735;SDS011;5924;51.398;7.088;2023-07-30T08:52:26;8.73;;;2.87;;
11735;SDS011;5924;51.398;7.088;2023-07-30T08:54:54;5.93;;;2.73;;
11735;SDS011;5924;51.398;7.088;2023-07-30T08:57:22;11.20;;;2.60;;
11735;SDS011;5924;51.398;7.088;2023-07-30T08:59:52;5.30;;;2.47;;
11735;SDS011;5924;51.398;7.088;2023-07-30T09:03:07;3.13;;;2.83;;
11735;SDS011;5924;51.398;7.088;2023-07-30T09:05:16;2.90;;;2.53;;
11735;SDS011;5924;51.398;7.088;2023-07-30T09:07:44;6.83;;;3.10;;
11735;SDS011;5924;51.398;7.088;2023-07-30T09:10:10;9.00;;;2.97;;
11735;SDS011;5924;51.398;7.088;2023-07-30T09:12:35;15.00;;;3.20;;
11735;SDS011;5924;51.398;7.088;2023-07-30T09:15:02;4.70;;;3.30;;
11735;SDS011;5924;51.398;7.088;2023-07-30T09:17:31;4.33;;;2.90;;
11735;SDS011;5924;51.398;7.088;2023-07-30T09:20:01;3.97;;;2.63;;
11735;SDS011;5924;51.398;7.088;2023-07-30T09:22:29;8.93;;;2.17;;
11735;SDS011;5924;51.398;7.088;2023-07-30T09:25:02;4.97;;;2.60;;
11735;SDS011;5924;51.398;7.088;2023-07-30T09:27:28;4.37;;;2.63;;
11735;SDS011;5924;51.398;7.088;2023-07-30T09:32:25;8.97;;;2.63;;
11735;SDS011;5924;51.398;7.088;2023-07-30T09:34:52;10.87;;;2.83;;
11735;SDS011;5924;51.398;7.088;2023-07-30T09:37:18;10.23;;;3.43;;
11735;SDS011;5924;51.398;7.088;2023-07-30T09:39:44;4.70;;;2.60;;
11735;SDS011;5924;51.398;7.088;2023-07-30T09:42:13;7.40;;;2.47;;
11735;SDS011;5924;51.398;7.088;2023-07-30T09:44:38;4.90;;;2.60;;
11735;SDS011;5924;51.398;7.088;2023-07-30T09:47:04;10.50;;;2.57;;
11735;SDS011;5924;51.398;7.088;2023-07-30T09:49:34;17.80;;;3.20;;
11735;SDS011;5924;51.398;7.088;2023-07-30T09:52:04;6.90;;;3.40;;
11735;SDS011;5924;51.398;7.088;2023-07-30T09:54:30;3.57;;;2.20;;
11735;SDS011;5924;51.398;7.088;2023-07-30T09:56:57;8.87;;;2.83;;
11735;SDS011;5924;51.398;7.088;2023-07-30T09:59:23;8.50;;;2.80;;
11735;SDS011;5924;51.398;7.088;2023-07-30T10:01:49;4.97;;;2.00;;
11735;SDS011;5924;51.398;7.088;2023-07-30T10:04:16;15.27;;;2.43;;
11735;SDS011;5924;51.398;7.088;2023-07-30T10:09:14;3.77;;;1.93;;
11735;SDS011;5924;51.398;7.088;2023-07-30T10:11:44;5.90;;;2.20;;
11735;SDS011;5924;51.398;7.088;2023-07-30T10:14:12;8.20;;;2.20;;
11735;SDS011;5924;51.398;7.088;2023-07-30T10:16:39;5.27;;;1.90;;
11735;SDS011;5924;51.398;7.088;2023-07-30T10:19:14;3.00;;;2.03;;
11735;SDS011;5924;51.398;7.088;2023-07-30T10:21:41;8.77;;;2.60;;
11735;SDS011;5924;51.398;7.088;2023-07-30T10:24:07;3.90;;;1.60;;
11735;SDS011;5924;51.398;7.088;2023-07-30T10:26:34;1.63;;;1.40;;
11735;SDS011;5924;51.398;7.088;2023-07-30T10:29:14;5.03;;;1.90;;
11735;SDS011;5924;51.398;7.088;2023-07-30T10:31:42;7.30;;;1.77;;
11735;SDS011;5924;51.398;7.088;2023-07-30T10:34:18;6.10;;;1.80;;
11735;SDS011;5924;51.398;7.088;2023-07-30T10:36:44;3.13;;;1.60;;
11735;SDS011;5924;51.398;7.088;2023-07-30T10:41:39;6.20;;;2.10;;
11735;SDS011;5924;51.398;7.088;2023-07-30T10:44:06;2.70;;;1.50;;
11735;SDS011;5924;51.398;7.088;2023-07-30T10:46:31;3.47;;;1.70;;
11735;SDS011;5924;51.398;7.088;2023-07-30T10:48:57;5.00;;;1.60;;
11735;SDS011;5924;51.398;7.088;2023-07-30T10:51:22;3.50;;;1.53;;
11735;SDS011;5924;51.398;7.088;2023-07-30T10:53:49;5.60;;;1.70;;
11735;SDS011;5924;51.398;7.088;2023-07-30T10:56:16;2.73;;;1.80;;
11735;SDS011;5924;51.398;7.088;2023-07-30T10:58:43;5.73;;;1.73;;
11735;SDS011;5924;51.398;7.088;2023-07-30T11:01:15;4.03;;;1.57;;
11735;SDS011;5924;51.398;7.088;2023-07-30T11:03:41;4.67;;;1.83;;
11735;SDS011;5924;51.398;7.088;2023-07-30T11:06:07;5.03;;;1.83;;
11735;SDS011;5924;51.398;7.088;2023-07-30T11:11:01;3.07;;;1.77;;
11735;SDS011;5924;51.398;7.088;2023-07-30T11:13:27;4.43;;;2.00;;
11735;SDS011;5924;51.398;7.088;2023-07-30T11:15:53;4.10;;;2.00;;
11735;SDS011;5924;51.398;7.088;2023-07-30T11:18:19;3.97;;;1.80;;
11735;SDS011;5924;51.398;7.088;2023-07-30T11:20:44;6.47;;;1.77;;
11735;SDS011;5924;51.398;7.088;2023-07-30T11:23:17;4.60;;;1.60;;
11735;SDS011;5924;51.398;7.088;2023-07-30T11:25:49;2.87;;;1.60;;
11735;SDS011;5924;51.398;7.088;2023-07-30T11:30:58;4.47;;;2.20;;
11735;SDS011;5924;51.398;7.088;2023-07-30T11:33:25;2.33;;;1.33;;
11735;SDS011;5924;51.398;7.088;2023-07-30T11:35:55;3.80;;;1.47;;
11735;SDS011;5924;51.398;7.088;2023-07-30T11:38:25;2.83;;;1.57;;
11735;SDS011;5924;51.398;7.088;2023-07-30T11:40:52;2.23;;;1.33;;
11735;SDS011;5924;51.398;7.088;2023-07-30T11:43:18;3.27;;;1.33;;
11735;SDS011;5924;51.398;7.088;2023-07-30T11:45:45;6.47;;;1.50;;
11735;SDS011;5924;51.398;7.088;2023-07-30T11:48:11;5.83;;;1.80;;
11735;SDS011;5924;51.398;7.088;2023-07-30T11:53:13;6.43;;;1.70;;
11735;SDS011;5924;51.398;7.088;2023-07-30T11:55:39;7.23;;;1.30;;
11735;SDS011;5924;51.398;7.088;2023-07-30T11:58:06;4.37;;;1.30;;
11735;SDS011;5924;51.398;7.088;2023-07-30T12:00:33;2.80;;;1.30;;
11735;SDS011;5924;51.398;7.088;2023-07-30T12:03:06;3.33;;;2.10;;
11735;SDS011;5924;51.398;7.088;2023-07-30T12:05:34;3.30;;;1.50;;
11735;SDS011;5924;51.398;7.088;2023-07-30T12:08:01;2.00;;;1.50;;
11735;SDS011;5924;51.398;7.088;2023-07-30T12:10:40;1.40;;;1.30;;
11735;SDS011;5924;51.398;7.088;2023-07-30T12:13:19;3.87;;;1.30;;
11735;SDS011;5924;51.398;7.088;2023-07-30T12:18:20;5.47;;;1.50;;
11735;SDS011;5924;51.398;7.088;2023-07-30T12:20:47;2.30;;;1.10;;
11735;SDS011;5924;51.398;7.088;2023-07-30T12:23:13;2.10;;;1.13;;
11735;SDS011;5924;51.398;7.088;2023-07-30T12:25:39;2.30;;;1.37;;
11735;SDS011;5924;51.398;7.088;2023-07-30T12:28:05;3.00;;;0.87;;
11735;SDS011;5924;51.398;7.088;2023-07-30T12:30:30;3.13;;;1.00;;
11735;SDS011;5924;51.398;7.088;2023-07-30T12:32:58;2.07;;;1.07;;
11735;SDS011;5924;51.398;7.088;2023-07-30T12:35:23;2.03;;;1.30;;
11735;SDS011;5924;51.398;7.088;2023-07-30T12:37:49;5.60;;;1.93;;
11735;SDS011;5924;51.398;7.088;2023-07-30T12:40:15;4.00;;;1.37;;
11735;SDS011;5924;51.398;7.088;2023-07-30T12:42:41;1.73;;;1.10;;
11735;SDS011;5924;51.398;7.088;2023-07-30T12:45:07;1.57;;;0.97;;
11735;SDS011;5924;51.398;7.088;2023-07-30T12:47:33;4.40;;;1.10;;
11735;SDS011;5924;51.398;7.088;2023-07-30T12:50:02;2.10;;;1.10;;
11735;SDS011;5924;51.398;7.088;2023-07-30T12:52:28;0.60;;;0.60;;
11735;SDS011;5924;51.398;7.088;2023-07-30T12:54:54;3.10;;;1.30;;
11735;SDS011;5924;51.398;7.088;2023-07-30T12:57:19;1.90;;;0.87;;
11735;SDS011;5924;51.398;7.088;2023-07-30T12:59:45;1.77;;;1.00;;
11735;SDS011;5924;51.398;7.088;2023-07-30T13:02:11;1.23;;;0.57;;
11735;SDS011;5924;51.398;7.088;2023-07-30T13:04:36;1.53;;;0.80;;
11735;SDS011;5924;51.398;7.088;2023-07-30T13:07:02;3.33;;;0.90;;
11735;SDS011;5924;51.398;7.088;2023-07-30T13:09:28;3.23;;;1.20;;
11735;SDS011;5924;51.398;7.088;2023-07-30T13:11:54;1.27;;;0.97;;
11735;SDS011;5924;51.398;7.088;2023-07-30T13:14:19;1.60;;;0.90;;
11735;SDS011;5924;51.398;7.088;2023-07-30T13:16:45;0.93;;;0.93;;
11735;SDS011;5924;51.398;7.088;2023-07-30T13:19:11;2.43;;;1.00;;
11735;SDS011;5924;51.398;7.088;2023-07-30T13:21:37;2.00;;;0.90;;
11735;SDS011;5924;51.398;7.088;2023-07-30T13:24:02;0.77;;;0.77;;
11735;SDS011;5924;51.398;7.088;2023-07-30T13:26:28;2.90;;;1.00;;
11735;SDS011;5924;51.398;7.088;2023-07-30T13:28:54;1.03;;;0.80;;
11735;SDS011;5924;51.398;7.088;2023-07-30T13:31:19;4.00;;;1.07;;
11735;SDS011;5924;51.398;7.088;2023-07-30T13:33:45;1.90;;;1.10;;
11735;SDS011;5924;51.398;7.088;2023-07-30T13:36:12;1.77;;;1.10;;
11735;SDS011;5924;51.398;7.088;2023-07-30T13:38:38;1.17;;;0.80;;
11735;SDS011;5924;51.398;7.088;2023-07-30T13:41:04;2.93;;;0.87;;
11735;SDS011;5924;51.398;7.088;2023-07-30T13:43:30;2.10;;;1.40;;
11735;SDS011;5924;51.398;7.088;2023-07-30T13:45:57;2.00;;;1.40;;
11735;SDS011;5924;51.398;7.088;2023-07-30T13:48:23;1.50;;;1.10;;
11735;SDS011;5924;51.398;7.088;2023-07-30T13:50:49;1.60;;;1.30;;
11735;SDS011;5924;51.398;7.088;2023-07-30T13:53:15;1.03;;;1.00;;
11735;SDS011;5924;51.398;7.088;2023-07-30T13:55:40;2.00;;;1.03;;
11735;SDS011;5924;51.398;7.088;2023-07-30T13:58:06;1.40;;;0.90;;
11735;SDS011;5924;51.398;7.088;2023-07-30T14:00:33;4.30;;;1.77;;
11735;SDS011;5924;51.398;7.088;2023-07-30T14:02:58;1.43;;;1.20;;
11735;SDS011;5924;51.398;7.088;2023-07-30T14:05:24;2.57;;;0.80;;
11735;SDS011;5924;51.398;7.088;2023-07-30T14:07:50;1.20;;;1.10;;
11735;SDS011;5924;51.398;7.088;2023-07-30T14:10:18;2.80;;;0.90;;
11735;SDS011;5924;51.398;7.088;2023-07-30T14:12:45;1.00;;;0.90;;
11735;SDS011;5924;51.398;7.088;2023-07-30T14:15:10;1.20;;;1.10;;
11735;SDS011;5924;51.398;7.088;2023-07-30T14:17:36;1.83;;;1.00;;
11735;SDS011;5924;51.398;7.088;2023-07-30T14:20:02;4.23;;;1.07;;
11735;SDS011;5924;51.398;7.088;2023-07-30T14:22:27;2.97;;;1.10;;
11735;SDS011;5924;51.398;7.088;2023-07-30T14:24:53;2.30;;;1.13;;
11735;SDS011;5924;51.398;7.088;2023-07-30T14:27:19;1.43;;;0.97;;
11735;SDS011;5924;51.398;7.088;2023-07-30T14:29:45;2.50;;;1.50;;
11735;SDS011;5924;51.398;7.088;2023-07-30T14:32:10;2.10;;;1.27;;
11735;SDS011;5924;51.398;7.088;2023-07-30T14:34:36;3.60;;;1.67;;
11735;SDS011;5924;51.398;7.088;2023-07-30T14:37:01;3.43;;;1.37;;
11735;SDS011;5924;51.398;7.088;2023-07-30T14:39:27;1.27;;;1.17;;
11735;SDS011;5924;51.398;7.088;2023-07-30T14:41:53;2.30;;;1.27;;
11735;SDS011;5924;51.398;7.088;2023-07-30T14:44:18;1.63;;;1.50;;
11735;SDS011;5924;51.398;7.088;2023-07-30T14:46:44;3.50;;;1.50;;
11735;SDS011;5924;51.398;7.088;2023-07-30T14:49:10;3.90;;;1.40;;
11735;SDS011;5924;51.398;7.088;2023-07-30T14:51:35;2.33;;;1.10;;
11735;SDS011;5924;51.398;7.088;2023-07-30T14:54:01;1.63;;;1.30;;
11735;SDS011;5924;51.398;7.088;2023-07-30T14:56:28;4.30;;;1.70;;
11735;SDS011;5924;51.398;7.088;2023-07-30T14:58:53;6.90;;;1.20;;
11735;SDS011;5924;51.398;7.088;2023-07-30T15:01:19;5.03;;;1.40;;
11735;SDS011;5924;51.398;7.088;2023-07-30T15:03:46;9.10;;;1.50;;
11735;SDS011;5924;51.398;7.088;2023-07-30T15:06:12;3.10;;;1.60;;
11735;SDS011;5924;51.398;7.088;2023-07-30T15:08:38;3.80;;;1.20;;
11735;SDS011;5924;51.398;7.088;2023-07-30T15:11:04;4.17;;;1.33;;
11735;SDS011;5924;51.398;7.088;2023-07-30T15:13:29;4.90;;;1.40;;